createdAt,value
2023-01-22T00:00:55.699Z,1022.67
2023-01-22T00:01:55.617Z,1022.66
2023-01-22T00:02:55.542Z,1022.68
2023-01-22T00:03:55.535Z,1022.72
2023-01-22T00:04:55.446Z,1022.64
2023-01-22T00:05:55.331Z,1022.69
2023-01-22T00:06:55.272Z,1022.68
2023-01-22T00:07:55.209Z,1022.67
2023-01-22T00:08:55.115Z,1022.68
2023-01-22T00:09:55.038Z,1022.70
2023-01-22T00:10:54.980Z,1022.70
2023-01-22T00:11:54.896Z,1022.68
2023-01-22T00:12:54.829Z,1022.67
2023-01-22T00:13:54.764Z,1022.65
2023-01-22T00:14:54.696Z,1022.67
2023-01-22T00:15:54.628Z,1022.68
2023-01-22T00:16:54.545Z,1022.61
2023-01-22T00:17:54.474Z,1022.65
2023-01-22T00:18:54.404Z,1022.69
2023-01-22T00:19:54.327Z,1022.66
2023-01-22T00:20:54.266Z,1022.60
2023-01-22T00:21:54.194Z,1022.68
2023-01-22T00:22:54.136Z,1022.63
2023-01-22T00:23:54.061Z,1022.64
2023-01-22T00:24:53.982Z,1022.60
2023-01-22T00:25:53.927Z,1022.67
2023-01-22T00:26:53.840Z,1022.65
2023-01-22T00:27:53.800Z,1022.66
2023-01-22T00:28:53.707Z,1022.66
2023-01-22T00:29:53.624Z,1022.67
2023-01-22T00:30:53.615Z,1022.65
2023-01-22T00:31:53.581Z,1022.63
2023-01-22T00:32:53.406Z,1022.69
2023-01-22T00:33:53.337Z,1022.70
2023-01-22T00:34:53.286Z,1022.69
2023-01-22T00:35:53.194Z,1022.68
2023-01-22T00:36:55.195Z,1022.68
2023-01-22T00:37:53.058Z,1022.66
2023-01-22T00:38:52.988Z,1022.69
2023-01-22T00:39:52.973Z,1022.73
2023-01-22T00:40:52.840Z,1022.69
2023-01-22T00:41:52.773Z,1022.70
2023-01-22T00:42:52.699Z,1022.70
2023-01-22T00:43:53.111Z,1022.69
2023-01-22T00:44:52.556Z,1022.67
2023-01-22T00:45:52.484Z,1022.72
2023-01-22T00:46:52.459Z,1022.70
2023-01-22T00:47:52.347Z,1022.71
2023-01-22T00:48:52.291Z,1022.72
2023-01-22T00:49:52.207Z,1022.69
2023-01-22T00:50:52.166Z,1022.72
2023-01-22T00:51:52.058Z,1022.71
2023-01-22T00:52:52.025Z,1022.72
2023-01-22T00:53:51.934Z,1022.71
2023-01-22T00:54:51.848Z,1022.75
2023-01-22T00:55:51.792Z,1022.74
2023-01-22T00:56:51.706Z,1022.73
2023-01-22T00:57:51.635Z,1022.70
2023-01-22T00:58:51.562Z,1022.72
2023-01-22T00:59:51.495Z,1022.73
2023-01-22T01:00:51.508Z,1022.72
2023-01-22T01:01:51.384Z,1022.67
2023-01-22T01:02:51.292Z,1022.68
2023-01-22T01:03:51.211Z,1022.72
2023-01-22T01:04:51.169Z,1022.68
2023-01-22T01:05:51.097Z,1022.72
2023-01-22T01:06:51.062Z,1022.68
2023-01-22T01:07:50.924Z,1022.64
2023-01-22T01:08:50.859Z,1022.71
2023-01-22T01:09:50.786Z,1022.70
2023-01-22T01:10:50.707Z,1022.77
2023-01-22T01:11:50.637Z,1022.76
2023-01-22T01:12:50.670Z,1022.73
2023-01-22T01:13:50.501Z,1022.70
2023-01-22T01:14:50.429Z,1022.74
2023-01-22T01:15:50.392Z,1022.68
2023-01-22T01:16:50.297Z,1022.78
2023-01-22T01:17:50.219Z,1022.69
2023-01-22T01:18:50.140Z,1022.76
2023-01-22T01:19:50.069Z,1022.79
2023-01-22T01:20:50.003Z,1022.79
2023-01-22T01:21:49.933Z,1022.79
2023-01-22T01:22:49.856Z,1022.75
2023-01-22T01:23:49.825Z,1022.76
2023-01-22T01:24:49.719Z,1022.77
2023-01-22T01:25:49.658Z,1022.76
2023-01-22T01:26:49.571Z,1022.78
2023-01-22T01:27:49.499Z,1022.71
2023-01-22T01:28:49.540Z,1022.78
2023-01-22T01:29:49.360Z,1022.76
2023-01-22T01:30:49.401Z,1022.78
2023-01-22T01:31:49.329Z,1022.74
2023-01-22T01:32:49.146Z,1022.79
2023-01-22T01:33:49.074Z,1022.83
2023-01-22T01:34:49.010Z,1022.82
2023-01-22T01:35:48.947Z,1022.82
2023-01-22T01:36:49.810Z,1022.86
2023-01-22T01:37:48.793Z,1022.86
2023-01-22T01:38:48.718Z,1022.88
2023-01-22T01:39:48.650Z,1022.82
2023-01-22T01:40:48.581Z,1022.86
2023-01-22T01:41:48.516Z,1022.89
2023-01-22T01:42:48.433Z,1022.81
2023-01-22T01:43:48.363Z,1022.81
2023-01-22T01:44:48.387Z,1022.85
2023-01-22T01:45:48.223Z,1022.86
2023-01-22T01:46:48.220Z,1022.84
2023-01-22T01:47:48.083Z,1022.89
2023-01-22T01:48:48.011Z,1022.85
2023-01-22T01:49:47.939Z,1022.86
2023-01-22T01:50:47.935Z,1022.89
2023-01-22T01:51:47.796Z,1022.91
2023-01-22T01:52:47.733Z,1022.91
2023-01-22T01:53:47.662Z,1022.95
2023-01-22T01:54:47.582Z,1022.88
2023-01-22T01:55:47.514Z,1022.91
2023-01-22T01:56:47.457Z,1022.93
2023-01-22T01:57:47.369Z,1022.97
2023-01-22T01:58:47.306Z,1022.96
2023-01-22T01:59:47.227Z,1022.97
2023-01-22T02:00:47.303Z,1023.00
2023-01-22T02:01:47.098Z,1022.96
2023-01-22T02:02:47.017Z,1022.97
2023-01-22T02:03:46.964Z,1022.95
2023-01-22T02:04:46.870Z,1022.98
2023-01-22T02:05:46.870Z,1023.01
2023-01-22T02:06:46.730Z,1023.00
2023-01-22T02:07:46.662Z,1023.03
2023-01-22T02:08:46.583Z,1023.05
2023-01-22T02:09:46.535Z,1023.05
2023-01-22T02:10:46.447Z,1023.04
2023-01-22T02:11:46.375Z,1023.04
2023-01-22T02:12:46.305Z,1023.08
2023-01-22T02:13:46.278Z,1023.11
2023-01-22T02:14:46.157Z,1023.08
2023-01-22T02:15:46.086Z,1023.08
2023-01-22T02:16:46.117Z,1023.11
2023-01-22T02:17:45.969Z,1023.14
2023-01-22T02:18:45.875Z,1023.16
2023-01-22T02:19:45.804Z,1023.13
2023-01-22T02:20:45.786Z,1023.13
2023-01-22T02:21:45.670Z,1023.12
2023-01-22T02:22:45.610Z,1023.20
2023-01-22T02:23:45.569Z,1023.20
2023-01-22T02:24:45.452Z,1023.20
2023-01-22T02:25:45.374Z,1023.12
2023-01-22T02:26:45.305Z,1023.17
2023-01-22T02:27:45.235Z,1023.20
2023-01-22T02:28:45.188Z,1023.23
2023-01-22T02:29:45.099Z,1023.21
2023-01-22T02:30:45.068Z,1023.19
2023-01-22T02:31:44.996Z,1023.20
2023-01-22T02:32:44.976Z,1023.22
2023-01-22T02:33:44.807Z,1023.20
2023-01-22T02:34:44.741Z,1023.21
2023-01-22T02:35:44.664Z,1023.25
2023-01-22T02:36:44.607Z,1023.23
2023-01-22T02:37:44.523Z,1023.23
2023-01-22T02:38:44.452Z,1023.22
2023-01-22T02:39:44.388Z,1023.20
2023-01-22T02:40:44.331Z,1023.20
2023-01-22T02:41:44.235Z,1023.22
2023-01-22T02:42:44.176Z,1023.19
2023-01-22T02:43:44.100Z,1023.22
2023-01-22T02:44:44.046Z,1023.15
2023-01-22T02:45:43.997Z,1023.14
2023-01-22T02:46:43.887Z,1023.14
2023-01-22T02:47:43.824Z,1023.12
2023-01-22T02:48:43.833Z,1023.09
2023-01-22T02:49:43.675Z,1023.11
2023-01-22T02:50:43.608Z,1023.06
2023-01-22T02:51:43.527Z,1023.09
2023-01-22T02:52:43.455Z,1023.13
2023-01-22T02:53:43.391Z,1023.12
2023-01-22T02:54:43.320Z,1023.07
2023-01-22T02:55:43.243Z,1023.05
2023-01-22T02:56:43.175Z,1023.03
2023-01-22T02:57:43.124Z,1023.08
2023-01-22T02:58:43.041Z,1023.07
2023-01-22T02:59:42.978Z,1023.06
2023-01-22T03:00:42.931Z,1023.06
2023-01-22T03:01:42.829Z,1023.04
2023-01-22T03:02:42.749Z,1023.06
2023-01-22T03:03:42.697Z,1023.03
2023-01-22T03:04:42.703Z,1022.99
2023-01-22T03:05:42.531Z,1023.01
2023-01-22T03:06:42.489Z,1023.05
2023-01-22T03:07:42.479Z,1023.06
2023-01-22T03:08:42.322Z,1023.02
2023-01-22T03:09:42.243Z,1022.99
2023-01-22T03:10:42.175Z,1023.09
2023-01-22T03:11:42.120Z,1023.02
2023-01-22T03:12:42.037Z,1022.99
2023-01-22T03:13:41.956Z,1023.01
2023-01-22T03:14:41.889Z,1023.06
2023-01-22T03:15:41.817Z,1023.08
2023-01-22T03:16:41.793Z,1023.05
2023-01-22T03:17:41.677Z,1023.09
2023-01-22T03:18:41.607Z,1023.12
2023-01-22T03:19:41.531Z,1023.11
2023-01-22T03:20:41.574Z,1023.12
2023-01-22T03:21:41.397Z,1023.11
2023-01-22T03:22:41.318Z,1023.13
2023-01-22T03:23:41.247Z,1023.12
2023-01-22T03:24:41.180Z,1023.18
2023-01-22T03:25:41.117Z,1023.18
2023-01-22T03:26:41.031Z,1023.16
2023-01-22T03:27:40.965Z,1023.16
2023-01-22T03:28:40.893Z,1023.17
2023-01-22T03:29:40.824Z,1023.19
2023-01-22T03:30:40.769Z,1023.24
2023-01-22T03:31:40.761Z,1023.21
2023-01-22T03:32:40.609Z,1023.19
2023-01-22T03:33:40.555Z,1023.25
2023-01-22T03:34:40.471Z,1023.27
2023-01-22T03:35:40.399Z,1023.25
2023-01-22T03:36:40.421Z,1023.22
2023-01-22T03:37:40.266Z,1023.25
2023-01-22T03:38:40.230Z,1023.24
2023-01-22T03:39:40.169Z,1023.26
2023-01-22T03:40:40.048Z,1023.27
2023-01-22T03:41:40.016Z,1023.31
2023-01-22T03:42:39.894Z,1023.30
2023-01-22T03:43:39.824Z,1023.28
2023-01-22T03:44:39.755Z,1023.26
2023-01-22T03:45:39.733Z,1023.23
2023-01-22T03:46:39.611Z,1023.23
2023-01-22T03:47:39.538Z,1023.23
2023-01-22T03:48:39.474Z,1023.25
2023-01-22T03:49:39.395Z,1023.27
2023-01-22T03:50:39.331Z,1023.28
2023-01-22T03:51:39.263Z,1023.28
2023-01-22T03:52:39.280Z,1023.28
2023-01-22T03:53:39.112Z,1023.32
2023-01-22T03:54:39.043Z,1023.28
2023-01-22T03:55:38.974Z,1023.31
2023-01-22T03:56:38.899Z,1023.34
2023-01-22T03:57:38.826Z,1023.35
2023-01-22T03:58:38.761Z,1023.34
2023-01-22T03:59:38.698Z,1023.35
2023-01-22T04:00:38.625Z,1023.37
2023-01-22T04:01:38.543Z,1023.36
2023-01-22T04:02:38.505Z,1023.36
2023-01-22T04:03:38.416Z,1023.37
2023-01-22T04:04:38.342Z,1023.36
2023-01-22T04:05:38.267Z,1023.33
2023-01-22T04:06:38.182Z,1023.37
2023-01-22T04:07:38.117Z,1023.38
2023-01-22T04:08:38.141Z,1023.42
2023-01-22T04:09:37.974Z,1023.42
2023-01-22T04:10:37.913Z,1023.42
2023-01-22T04:11:37.833Z,1023.37
2023-01-22T04:12:37.760Z,1023.38
2023-01-22T04:13:37.700Z,1023.38
2023-01-22T04:14:37.638Z,1023.39
2023-01-22T04:15:37.555Z,1023.35
2023-01-22T04:16:37.498Z,1023.42
2023-01-22T04:17:37.407Z,1023.47
2023-01-22T04:18:37.346Z,1023.39
2023-01-22T04:19:37.265Z,1023.44
2023-01-22T04:20:37.190Z,1023.46
2023-01-22T04:21:37.126Z,1023.46
2023-01-22T04:22:37.051Z,1023.42
2023-01-22T04:23:36.980Z,1023.43
2023-01-22T04:24:37.017Z,1023.51
2023-01-22T04:25:36.859Z,1023.44
2023-01-22T04:26:36.766Z,1023.49
2023-01-22T04:27:36.706Z,1023.45
2023-01-22T04:28:36.628Z,1023.48
2023-01-22T04:29:36.559Z,1023.47
2023-01-22T04:30:36.585Z,1023.59
2023-01-22T04:31:36.526Z,1023.51
2023-01-22T04:32:36.340Z,1023.48
2023-01-22T04:33:36.277Z,1023.47
2023-01-22T04:34:36.201Z,1023.49
2023-01-22T04:35:36.128Z,1023.47
2023-01-22T04:36:36.056Z,1023.47
2023-01-22T04:37:35.993Z,1023.50
2023-01-22T04:38:35.923Z,1023.54
2023-01-22T04:39:35.852Z,1023.52
2023-01-22T04:40:35.872Z,1023.53
2023-01-22T04:41:35.704Z,1023.52
2023-01-22T04:42:35.631Z,1023.50
2023-01-22T04:43:35.568Z,1023.51
2023-01-22T04:44:35.489Z,1023.49
2023-01-22T04:45:35.420Z,1023.46
2023-01-22T04:46:35.350Z,1023.51
2023-01-22T04:47:35.282Z,1023.54
2023-01-22T04:48:35.213Z,1023.55
2023-01-22T04:49:35.145Z,1023.58
2023-01-22T04:50:35.082Z,1023.56
2023-01-22T04:51:34.995Z,1023.58
2023-01-22T04:52:34.920Z,1023.65
2023-01-22T04:53:34.852Z,1023.60
2023-01-22T04:54:34.779Z,1023.56
2023-01-22T04:55:34.710Z,1023.59
2023-01-22T04:56:34.734Z,1023.63
2023-01-22T04:57:34.569Z,1023.64
2023-01-22T04:58:34.494Z,1023.67
2023-01-22T04:59:34.431Z,1023.72
2023-01-22T05:00:34.355Z,1023.73
2023-01-22T05:01:34.331Z,1023.72
2023-01-22T05:02:34.236Z,1023.75
2023-01-22T05:03:34.149Z,1023.72
2023-01-22T05:04:34.075Z,1023.77
2023-01-22T05:05:34.005Z,1023.78
2023-01-22T05:06:33.926Z,1023.83
2023-01-22T05:07:33.859Z,1023.83
2023-01-22T05:08:33.793Z,1023.82
2023-01-22T05:09:33.718Z,1023.83
2023-01-22T05:10:33.656Z,1023.85
2023-01-22T05:11:33.580Z,1023.85
2023-01-22T05:12:33.599Z,1023.86
2023-01-22T05:13:33.434Z,1023.86
2023-01-22T05:14:33.370Z,1023.88
2023-01-22T05:15:33.307Z,1023.89
2023-01-22T05:16:33.222Z,1023.88
2023-01-22T05:17:33.150Z,1023.93
2023-01-22T05:18:33.076Z,1023.93
2023-01-22T05:19:33.008Z,1023.93
2023-01-22T05:20:32.986Z,1023.95
2023-01-22T05:21:32.870Z,1023.98
2023-01-22T05:22:32.804Z,1024.02
2023-01-22T05:23:32.728Z,1023.98
2023-01-22T05:24:32.650Z,1024.01
2023-01-22T05:25:32.590Z,1023.99
2023-01-22T05:26:32.511Z,1024.05
2023-01-22T05:27:32.442Z,1024.03
2023-01-22T05:28:32.486Z,1024.02
2023-01-22T05:29:32.307Z,1024.05
2023-01-22T05:30:32.246Z,1024.09
2023-01-22T05:31:32.193Z,1024.06
2023-01-22T05:32:32.090Z,1024.09
2023-01-22T05:33:32.014Z,1024.08
2023-01-22T05:34:31.955Z,1024.09
2023-01-22T05:35:31.880Z,1024.10
2023-01-22T05:36:31.824Z,1024.07
2023-01-22T05:37:31.732Z,1024.10
2023-01-22T05:38:31.661Z,1024.04
2023-01-22T05:39:31.595Z,1024.11
2023-01-22T05:40:31.519Z,1024.11
2023-01-22T05:41:31.458Z,1024.14
2023-01-22T05:42:31.388Z,1024.17
2023-01-22T05:43:31.309Z,1024.16
2023-01-22T05:44:33.448Z,1024.22
2023-01-22T05:45:31.165Z,1024.19
2023-01-22T05:46:31.165Z,1024.24
2023-01-22T05:47:31.029Z,1024.28
2023-01-22T05:48:30.953Z,1024.24
2023-01-22T05:49:30.898Z,1024.21
2023-01-22T05:50:30.816Z,1024.22
2023-01-22T05:51:32.470Z,1024.20
2023-01-22T05:52:30.669Z,1024.20
2023-01-22T05:53:30.613Z,1024.23
2023-01-22T05:54:30.532Z,1024.28
2023-01-22T05:55:30.468Z,1024.26
2023-01-22T05:56:30.390Z,1024.25
2023-01-22T05:57:30.318Z,1024.25
2023-01-22T05:58:30.248Z,1024.26
2023-01-22T05:59:30.176Z,1024.30
2023-01-22T06:00:30.200Z,1024.32
2023-01-22T06:01:30.042Z,1024.31
2023-01-22T06:02:30.031Z,1024.33
2023-01-22T06:03:29.932Z,1024.34
2023-01-22T06:04:29.833Z,1024.37
2023-01-22T06:05:29.770Z,1024.40
2023-01-22T06:06:29.678Z,1024.44
2023-01-22T06:07:29.609Z,1024.44
2023-01-22T06:08:29.545Z,1024.42
2023-01-22T06:09:29.468Z,1024.44
2023-01-22T06:10:29.398Z,1024.43
2023-01-22T06:11:29.326Z,1024.43
2023-01-22T06:12:29.258Z,1024.42
2023-01-22T06:13:29.192Z,1024.44
2023-01-22T06:14:29.127Z,1024.44
2023-01-22T06:15:29.048Z,1024.44
2023-01-22T06:16:29.071Z,1024.47
2023-01-22T06:17:28.912Z,1024.48
2023-01-22T06:18:28.836Z,1024.46
2023-01-22T06:19:28.801Z,1024.50
2023-01-22T06:20:28.692Z,1024.42
2023-01-22T06:21:28.616Z,1024.51
2023-01-22T06:22:28.553Z,1024.49
2023-01-22T06:23:28.478Z,1024.49
2023-01-22T06:24:28.405Z,1024.54
2023-01-22T06:25:28.335Z,1024.50
2023-01-22T06:26:28.260Z,1024.52
2023-01-22T06:27:28.197Z,1024.53
2023-01-22T06:28:28.120Z,1024.58
2023-01-22T06:29:28.052Z,1024.60
2023-01-22T06:30:27.977Z,1024.59
2023-01-22T06:31:28.021Z,1024.64
2023-01-22T06:32:27.944Z,1024.65
2023-01-22T06:33:27.764Z,1024.68
2023-01-22T06:34:27.694Z,1024.66
2023-01-22T06:35:27.626Z,1024.65
2023-01-22T06:36:27.599Z,1024.64
2023-01-22T06:37:27.507Z,1024.66
2023-01-22T06:38:27.412Z,1024.64
2023-01-22T06:39:27.342Z,1024.63
2023-01-22T06:40:27.268Z,1024.68
2023-01-22T06:41:27.205Z,1024.67
2023-01-22T06:42:27.130Z,1024.66
2023-01-22T06:43:27.067Z,1024.67
2023-01-22T06:44:26.984Z,1024.66
2023-01-22T06:45:26.926Z,1024.66
2023-01-22T06:46:26.903Z,1024.67
2023-01-22T06:47:26.785Z,1024.68
2023-01-22T06:48:26.815Z,1024.71
2023-01-22T06:49:26.630Z,1024.68
2023-01-22T06:50:26.577Z,1024.63
2023-01-22T06:51:26.631Z,1024.64
2023-01-22T06:52:26.426Z,1024.65
2023-01-22T06:53:26.355Z,1024.64
2023-01-22T06:54:26.278Z,1024.65
2023-01-22T06:55:26.292Z,1024.68
2023-01-22T06:56:26.156Z,1024.68
2023-01-22T06:57:26.130Z,1024.67
2023-01-22T06:58:26.001Z,1024.70
2023-01-22T06:59:25.927Z,1024.67
2023-01-22T07:00:25.852Z,1024.70
2023-01-22T07:01:25.795Z,1024.67
2023-01-22T07:02:25.708Z,1024.66
2023-01-22T07:03:25.666Z,1024.71
2023-01-22T07:04:25.661Z,1024.72
2023-01-22T07:05:25.497Z,1024.72
2023-01-22T07:06:25.424Z,1024.71
2023-01-22T07:09:07.982Z,1024.70
2023-01-22T07:10:07.895Z,1024.80
2023-01-22T07:12:11.800Z,1024.73
2023-01-22T07:13:11.737Z,1024.75
2023-01-22T07:14:11.777Z,1024.76
2023-01-22T07:15:11.616Z,1024.79
2023-01-22T07:16:11.582Z,1024.82
2023-01-22T07:17:11.412Z,1024.86
2023-01-22T07:18:11.340Z,1024.83
2023-01-22T07:19:11.271Z,1024.79
2023-01-22T07:20:11.302Z,1024.82
2023-01-22T07:21:11.129Z,1024.77
2023-01-22T07:22:11.059Z,1024.82
2023-01-22T07:23:10.986Z,1024.85
2023-01-22T07:24:10.922Z,1024.85
2023-01-22T07:25:10.856Z,1024.83
2023-01-22T07:26:10.816Z,1024.89
2023-01-22T07:27:10.751Z,1024.88
2023-01-22T07:28:10.673Z,1024.87
2023-01-22T07:29:10.566Z,1024.92
2023-01-22T07:30:10.493Z,1024.91
2023-01-22T07:31:10.597Z,1024.90
2023-01-22T07:32:10.350Z,1024.95
2023-01-22T07:33:10.280Z,1024.96
2023-01-22T07:34:10.211Z,1024.95
2023-01-22T07:35:10.134Z,1024.93
2023-01-22T07:36:10.160Z,1024.97
2023-01-22T07:37:09.999Z,1024.95
2023-01-22T07:38:09.936Z,1024.98
2023-01-22T07:39:09.871Z,1024.94
2023-01-22T07:40:09.785Z,1024.97
2023-01-22T07:41:24.886Z,1025.02
2023-01-22T07:42:09.645Z,1025.03
2023-01-22T07:43:09.570Z,1025.09
2023-01-22T07:44:09.509Z,1025.16
2023-01-22T07:45:09.440Z,1025.15
2023-01-22T07:46:09.473Z,1025.19
2023-01-22T07:47:09.288Z,1025.16
2023-01-22T07:48:09.215Z,1025.19
2023-01-22T07:49:09.147Z,1025.21
2023-01-22T07:50:09.084Z,1025.20
2023-01-22T07:51:09.027Z,1025.20
2023-01-22T07:52:09.030Z,1025.21
2023-01-22T07:53:08.876Z,1025.26
2023-01-22T07:54:08.813Z,1025.24
2023-01-22T07:55:08.720Z,1025.23
2023-01-22T07:56:08.648Z,1025.24
2023-01-22T07:57:08.587Z,1025.33
2023-01-22T07:58:08.507Z,1025.33
2023-01-22T07:59:08.441Z,1025.31
2023-01-22T08:00:08.365Z,1025.32
2023-01-22T08:01:08.373Z,1025.34
2023-01-22T08:02:08.279Z,1025.35
2023-01-22T08:03:08.155Z,1025.35
2023-01-22T08:04:08.090Z,1025.40
2023-01-22T08:05:08.019Z,1025.41
2023-01-22T08:06:07.942Z,1025.40
2023-01-22T08:07:07.873Z,1025.44
2023-01-22T08:08:07.901Z,1025.46
2023-01-22T08:09:07.745Z,1025.43
2023-01-22T08:10:07.659Z,1025.46
2023-01-22T08:11:07.588Z,1025.46
2023-01-22T08:12:07.517Z,1025.48
2023-01-22T08:13:07.452Z,1025.49
2023-01-22T08:14:07.376Z,1025.53
2023-01-22T08:15:07.308Z,1025.55
2023-01-22T08:16:07.257Z,1025.51
2023-01-22T08:17:07.169Z,1025.50
2023-01-22T08:18:07.100Z,1025.56
2023-01-22T08:19:07.022Z,1025.54
2023-01-22T08:20:06.957Z,1025.57
2023-01-22T08:21:06.889Z,1025.54
2023-01-22T08:22:06.816Z,1025.56
2023-01-22T08:23:06.744Z,1025.55
2023-01-22T08:24:06.769Z,1025.58
2023-01-22T08:25:06.609Z,1025.57
2023-01-22T08:26:06.550Z,1025.58
2023-01-22T08:27:06.464Z,1025.56
2023-01-22T08:28:06.399Z,1025.58
2023-01-22T08:29:07.732Z,1025.59
2023-01-22T08:30:06.250Z,1025.60
2023-01-22T08:31:09.393Z,1025.60
2023-01-22T08:32:06.222Z,1025.64
2023-01-22T08:33:06.045Z,1025.59
2023-01-22T08:34:05.971Z,1025.65
2023-01-22T08:35:05.899Z,1025.60
2023-01-22T08:36:05.844Z,1025.62
2023-01-22T08:37:05.756Z,1025.60
2023-01-22T08:38:05.689Z,1025.61
2023-01-22T08:39:05.613Z,1025.63
2023-01-22T08:40:05.649Z,1025.62
2023-01-22T08:41:05.482Z,1025.62
2023-01-22T08:42:05.404Z,1025.58
2023-01-22T08:43:05.352Z,1025.64
2023-01-22T08:44:05.270Z,1025.65
2023-01-22T08:45:05.197Z,1025.59
2023-01-22T08:46:05.162Z,1025.60
2023-01-22T08:47:05.057Z,1025.62
2023-01-22T08:48:04.987Z,1025.61
2023-01-22T08:49:04.911Z,1025.60
2023-01-22T08:50:04.841Z,1025.64
2023-01-22T08:51:04.812Z,1025.67
2023-01-22T08:52:04.704Z,1025.67
2023-01-22T08:53:04.634Z,1025.68
2023-01-22T08:54:04.561Z,1025.71
2023-01-22T08:55:04.498Z,1025.69
2023-01-22T08:56:09.766Z,1025.70
2023-01-22T08:57:04.447Z,1025.69
2023-01-22T08:58:04.286Z,1025.77
2023-01-22T08:59:04.207Z,1025.72
2023-01-22T09:00:04.152Z,1025.76
2023-01-22T09:01:04.146Z,1025.76
2023-01-22T09:02:04.018Z,1025.73
2023-01-22T09:03:03.931Z,1025.81
2023-01-22T09:04:03.866Z,1025.79
2023-01-22T09:05:03.792Z,1025.82
2023-01-22T09:06:03.718Z,1025.84
2023-01-22T09:07:03.656Z,1025.86
2023-01-22T09:08:03.577Z,1025.87
2023-01-22T09:09:03.507Z,1025.87
2023-01-22T09:10:03.439Z,1025.91
2023-01-22T09:11:03.363Z,1025.91
2023-01-22T09:12:03.299Z,1025.91
2023-01-22T09:13:03.345Z,1025.95
2023-01-22T09:14:03.160Z,1025.96
2023-01-22T09:15:03.092Z,1025.99
2023-01-22T09:16:03.022Z,1026.01
2023-01-22T09:17:02.945Z,1026.02
2023-01-22T09:18:02.880Z,1026.02
2023-01-22T09:19:02.803Z,1026.03
2023-01-22T09:20:02.741Z,1026.05
2023-01-22T09:21:02.670Z,1026.00
2023-01-22T09:22:02.595Z,1026.04
2023-01-22T09:23:02.524Z,1026.00
2023-01-22T09:24:02.453Z,1026.02
2023-01-22T09:25:02.380Z,1026.04
2023-01-22T09:26:02.312Z,1026.04
2023-01-22T09:27:02.241Z,1026.03
2023-01-22T09:28:02.173Z,1026.05
2023-01-22T09:29:02.206Z,1026.08
2023-01-22T09:30:02.049Z,1026.06
2023-01-22T09:31:02.068Z,1026.07
2023-01-22T09:32:01.979Z,1026.11
2023-01-22T09:33:01.820Z,1026.08
2023-01-22T09:34:01.751Z,1026.06
2023-01-22T09:35:01.681Z,1026.11
2023-01-22T09:36:01.630Z,1026.11
2023-01-22T09:37:01.546Z,1026.15
2023-01-22T09:38:01.477Z,1026.15
2023-01-22T09:39:01.414Z,1026.15
2023-01-22T09:40:01.340Z,1026.17
2023-01-22T09:41:01.264Z,1026.17
2023-01-22T09:42:01.189Z,1026.20
2023-01-22T09:43:01.116Z,1026.22
2023-01-22T09:44:01.046Z,1026.19
2023-01-22T09:45:01.079Z,1026.22
2023-01-22T09:46:00.968Z,1026.22
2023-01-22T09:47:00.843Z,1026.24
2023-01-22T09:48:00.769Z,1026.25
2023-01-22T09:49:00.707Z,1026.22
2023-01-22T09:50:00.644Z,1026.27
2023-01-22T09:51:00.579Z,1026.26
2023-01-22T09:52:00.499Z,1026.29
2023-01-22T09:53:00.416Z,1026.25
2023-01-22T09:54:00.350Z,1026.25
2023-01-22T09:55:00.280Z,1026.28
2023-01-22T09:56:00.217Z,1026.27
2023-01-22T09:57:00.134Z,1026.24
2023-01-22T09:58:00.091Z,1026.26
2023-01-22T09:58:59.997Z,1026.26
2023-01-22T09:59:59.938Z,1026.27
2023-01-22T10:01:05.375Z,1026.26
2023-01-22T10:01:59.979Z,1026.31
2023-01-22T10:02:59.712Z,1026.27
2023-01-22T10:03:59.651Z,1026.25
2023-01-22T10:04:59.574Z,1026.27
2023-01-22T10:05:59.504Z,1026.21
2023-01-22T10:06:59.431Z,1026.23
2023-01-22T10:07:59.361Z,1026.26
2023-01-22T10:08:59.292Z,1026.23
2023-01-22T10:09:59.249Z,1026.24
2023-01-22T10:10:59.157Z,1026.19
2023-01-22T10:11:59.087Z,1026.24
2023-01-22T10:12:59.057Z,1026.26
2023-01-22T10:13:58.974Z,1026.18
2023-01-22T10:14:58.922Z,1026.20
2023-01-22T10:15:58.824Z,1026.17
2023-01-22T10:16:58.741Z,1026.21
2023-01-22T10:17:58.754Z,1026.22
2023-01-22T10:18:58.613Z,1026.24
2023-01-22T10:19:58.524Z,1026.28
2023-01-22T10:20:58.452Z,1026.26
2023-01-22T10:21:58.380Z,1026.27
2023-01-22T10:22:58.307Z,1026.25
2023-01-22T10:23:58.272Z,1026.27
2023-01-22T10:24:58.198Z,1026.28
2023-01-22T10:25:58.095Z,1026.27
2023-01-22T10:26:58.029Z,1026.27
2023-01-22T10:27:57.967Z,1026.32
2023-01-22T10:28:57.902Z,1026.25
2023-01-22T10:29:57.817Z,1026.28
2023-01-22T10:30:57.902Z,1026.28
2023-01-22T10:31:57.840Z,1026.28
2023-01-22T10:32:57.609Z,1026.25
2023-01-22T10:33:57.644Z,1026.25
2023-01-22T10:34:57.469Z,1026.22
2023-01-22T10:35:57.400Z,1026.24
2023-01-22T10:36:57.338Z,1026.24
2023-01-22T10:37:57.269Z,1026.27
2023-01-22T10:38:57.190Z,1026.23
2023-01-22T10:39:57.124Z,1026.23
2023-01-22T10:40:57.058Z,1026.24
2023-01-22T10:41:56.978Z,1026.20
2023-01-22T10:42:56.912Z,1026.23
2023-01-22T10:43:56.851Z,1026.20
2023-01-22T10:44:56.772Z,1026.19
2023-01-22T10:45:56.727Z,1026.24
2023-01-22T10:46:56.629Z,1026.26
2023-01-22T10:47:56.555Z,1026.23
2023-01-22T10:48:56.489Z,1026.25
2023-01-22T10:49:56.550Z,1026.23
2023-01-22T10:50:56.380Z,1026.23
2023-01-22T10:51:56.275Z,1026.28
2023-01-22T10:52:56.212Z,1026.31
2023-01-22T10:53:56.137Z,1026.29
2023-01-22T10:54:56.072Z,1026.28
2023-01-22T10:55:56.000Z,1026.29
2023-01-22T10:56:55.930Z,1026.32
2023-01-22T10:57:55.857Z,1026.27
2023-01-22T10:58:55.787Z,1026.34
2023-01-22T10:59:55.744Z,1026.27
2023-01-22T11:00:55.651Z,1026.30
2023-01-22T11:01:55.577Z,1026.32
2023-01-22T11:02:55.507Z,1026.35
2023-01-22T11:03:55.446Z,1026.29
2023-01-22T11:04:55.370Z,1026.31
2023-01-22T11:05:55.393Z,1026.30
2023-01-22T11:06:55.233Z,1026.32
2023-01-22T11:07:55.153Z,1026.32
2023-01-22T11:08:55.088Z,1026.34
2023-01-22T11:09:55.020Z,1026.28
2023-01-22T11:10:54.952Z,1026.28
2023-01-22T11:11:54.885Z,1026.32
2023-01-22T11:12:54.807Z,1026.31
2023-01-22T11:13:54.744Z,1026.31
2023-01-22T11:14:54.668Z,1026.32
2023-01-22T11:15:54.627Z,1026.30
2023-01-22T11:16:54.526Z,1026.32
2023-01-22T11:17:54.464Z,1026.31
2023-01-22T11:18:54.392Z,1026.33
2023-01-22T11:19:54.319Z,1026.32
2023-01-22T11:20:54.246Z,1026.34
2023-01-22T11:21:54.272Z,1026.29
2023-01-22T11:22:54.106Z,1026.30
2023-01-22T11:23:54.035Z,1026.33
2023-01-22T11:24:53.971Z,1026.31
2023-01-22T11:25:53.893Z,1026.32
2023-01-22T11:26:53.826Z,1026.35
2023-01-22T11:27:53.756Z,1026.31
2023-01-22T11:28:53.689Z,1026.35
2023-01-22T11:29:53.616Z,1026.38
2023-01-22T11:30:53.621Z,1026.32
2023-01-22T11:31:53.499Z,1026.27
2023-01-22T11:32:53.407Z,1026.23
2023-01-22T11:33:53.339Z,1026.25
2023-01-22T11:34:53.273Z,1026.20
2023-01-22T11:35:53.194Z,1026.20
2023-01-22T11:36:53.127Z,1026.18
2023-01-22T11:37:53.152Z,1026.21
2023-01-22T11:38:52.998Z,1026.22
2023-01-22T11:39:52.919Z,1026.19
2023-01-22T11:40:52.852Z,1026.19
2023-01-22T11:41:52.773Z,1026.22
2023-01-22T11:42:52.715Z,1026.20
2023-01-22T11:43:52.635Z,1026.24
2023-01-22T11:44:52.581Z,1026.24
2023-01-22T11:45:52.551Z,1026.24
2023-01-22T11:46:52.423Z,1026.26
2023-01-22T11:47:52.356Z,1026.22
2023-01-22T11:48:52.294Z,1026.26
2023-01-22T11:49:52.213Z,1026.27
2023-01-22T11:50:52.164Z,1026.28
2023-01-22T11:51:52.078Z,1026.27
2023-01-22T11:52:52.006Z,1026.22
2023-01-22T11:53:52.032Z,1026.23
2023-01-22T11:54:51.862Z,1026.21
2023-01-22T11:55:51.790Z,1026.22
2023-01-22T11:56:51.726Z,1026.22
2023-01-22T11:57:51.653Z,1026.19
2023-01-22T11:58:51.585Z,1026.22
2023-01-22T11:59:51.606Z,1026.19
2023-01-22T12:00:51.507Z,1026.22
2023-01-22T12:01:51.675Z,1026.24
2023-01-22T12:02:51.407Z,1026.23
2023-01-22T12:03:51.343Z,1026.21
2023-01-22T12:04:51.168Z,1026.23
2023-01-22T12:05:51.090Z,1026.24
2023-01-22T12:06:51.025Z,1026.25
2023-01-22T12:07:50.971Z,1026.24